Time;durP1;ratioP1;P1;durP2;ratioP2;P2;SDS_P1;SDS_P2;PMS_P1;PMS_P2;Temp;Humidity;BMP_temperature;BMP_pressure;BME280_temperature;BME280_humidity;BME280_pressure;Samples;Min_cycle;Max_cycle;Signal;HPM_P1;HPM_P2
2022/07/25 00:01:40;;;;;;;15.90;14.20;;;20.80;87.70;;;;;;5075464;28;20439;-66
2022/07/25 00:04:10;;;;;;;15.77;14.10;;;20.80;87.60;;;;;;5075302;28;20452;-67
2022/07/25 00:06:38;;;;;;;16.53;13.97;;;20.80;88.10;;;;;;5075747;28;20437;-66
2022/07/25 00:09:07;;;;;;;16.53;14.50;;;20.80;87.80;;;;;;5074710;28;20441;-67
2022/07/25 00:11:39;;;;;;;17.10;14.27;;;20.80;88.00;;;;;;5075337;28;20449;-67
2022/07/25 00:14:07;;;;;;;17.07;14.50;;;20.70;88.20;;;;;;5074578;28;20440;-66
2022/07/25 00:16:35;;;;;;;17.90;13.60;;;20.60;87.90;;;;;;5074949;28;20433;-66
2022/07/25 00:19:05;;;;;;;19.87;15.90;;;20.60;88.20;;;;;;5074798;28;20442;-67
2022/07/25 00:21:37;;;;;;;17.80;14.73;;;20.60;89.00;;;;;;5075136;28;20996;-67
2022/07/25 00:24:05;;;;;;;20.77;16.30;;;20.50;89.40;;;;;;5074601;28;20867;-66
2022/07/25 00:26:32;;;;;;;15.73;14.20;;;20.50;90.00;;;;;;5074595;28;20835;-67
2022/07/25 00:29:00;;;;;;;16.47;14.00;;;20.50;90.00;;;;;;5074830;28;20547;-67
2022/07/25 00:31:27;;;;;;;15.70;14.10;;;20.40;90.10;;;;;;5074698;28;20844;-66
2022/07/25 00:33:54;;;;;;;14.47;13.00;;;20.50;90.00;;;;;;5075140;28;20473;-73
2022/07/25 00:36:23;;;;;;;14.77;13.23;;;20.50;89.50;;;;;;5074271;28;20965;-66
2022/07/25 00:38:50;;;;;;;14.47;12.97;;;20.50;89.40;;;;;;5075079;28;20487;-66
2022/07/25 00:41:18;;;;;;;16.53;14.20;;;20.50;89.40;;;;;;5074318;28;20436;-66
2022/07/25 00:43:46;;;;;;;14.57;13.17;;;20.50;89.00;;;;;;5074395;28;20476;-66
2022/07/25 00:46:14;;;;;;;14.77;12.87;;;20.50;89.40;;;;;;5074126;28;20447;-66
2022/07/25 00:48:44;;;;;;;15.20;13.80;;;20.50;89.30;;;;;;5074363;28;20467;-66
2022/07/25 00:51:12;;;;;;;14.67;13.10;;;20.40;89.50;;;;;;5074230;28;20470;-66
2022/07/25 00:53:42;;;;;;;15.33;13.20;;;20.30;90.00;;;;;;5074651;28;20879;-67
2022/07/25 00:56:09;;;;;;;18.43;13.17;;;20.30;90.00;;;;;;5073920;28;20448;-66
2022/07/25 00:58:38;;;;;;;13.63;12.23;;;20.30;89.60;;;;;;5074029;28;20444;-67
2022/07/25 01:01:06;;;;;;;15.93;14.43;;;20.40;89.90;;;;;;5073790;28;20957;-67
2022/07/25 01:03:33;;;;;;;14.60;13.10;;;20.30;89.50;;;;;;5073662;28;21051;-67
2022/07/25 01:06:06;;;;;;;16.30;13.50;;;20.20;89.60;;;;;;5073783;28;20797;-67
2022/07/25 01:08:35;;;;;;;14.30;13.00;;;20.20;89.70;;;;;;5073732;28;20495;-67
2022/07/25 01:11:04;;;;;;;15.27;13.17;;;20.20;89.60;;;;;;5074237;28;20436;-67
2022/07/25 01:13:37;;;;;;;13.10;11.90;;;20.20;89.40;;;;;;5073480;28;20440;-67
2022/07/25 01:16:05;;;;;;;13.97;12.67;;;20.10;89.40;;;;;;5073598;28;20425;-67
2022/07/25 01:18:33;;;;;;;13.20;11.60;;;20.10;90.10;;;;;;5073610;28;20499;-67
2022/07/25 01:21:02;;;;;;;15.20;13.80;;;20.00;90.30;;;;;;5073624;28;20444;-67
2022/07/25 01:23:29;;;;;;;14.47;12.30;;;20.00;90.70;;;;;;5073854;28;20534;-67
2022/07/25 01:25:57;;;;;;;14.00;12.60;;;20.00;90.70;;;;;;5073669;28;20942;-66
2022/07/25 01:28:24;;;;;;;14.30;13.00;;;20.00;90.80;;;;;;5073319;28;20441;-67
2022/07/25 01:30:51;;;;;;;13.80;12.50;;;20.00;90.70;;;;;;5073949;28;20440;-66
2022/07/25 01:33:22;;;;;;;13.90;12.50;;;20.00;90.80;;;;;;5073413;28;20442;-66
2022/07/25 01:35:50;;;;;;;15.90;14.40;;;20.00;90.80;;;;;;5073767;28;20441;-66
2022/07/25 01:38:19;;;;;;;14.43;12.47;;;20.00;91.00;;;;;;5073094;28;20444;-67
2022/07/25 01:40:49;;;;;;;15.77;14.17;;;20.00;91.20;;;;;;5073449;28;20527;-67
2022/07/25 01:43:16;;;;;;;15.30;13.80;;;20.00;91.10;;;;;;5073213;28;20472;-67
2022/07/25 01:45:43;;;;;;;15.67;14.03;;;19.90;91.20;;;;;;5073249;28;20440;-66
2022/07/25 01:48:13;;;;;;;15.47;13.87;;;19.80;91.80;;;;;;5073113;28;20497;-67
2022/07/25 01:50:42;;;;;;;14.07;12.57;;;19.70;92.00;;;;;;5073443;28;20475;-66
2022/07/25 01:53:12;;;;;;;15.07;13.60;;;19.60;92.00;;;;;;5073198;28;20437;-67
2022/07/25 01:55:40;;;;;;;15.23;13.83;;;19.60;91.70;;;;;;5073416;28;20532;-66
2022/07/25 01:58:08;;;;;;;15.03;13.60;;;19.50;91.90;;;;;;5072636;28;20499;-66
2022/07/25 02:00:35;;;;;;;15.57;13.90;;;19.50;91.90;;;;;;5073044;28;20447;-67
2022/07/25 02:05:50;;;;;;;17.67;13.57;;;19.70;91.90;;;;;;5072432;28;20770;-66
2022/07/25 02:08:17;;;;;;;14.00;12.60;;;19.70;91.90;;;;;;5070757;28;20436;-73
2022/07/25 02:10:46;;;;;;;14.00;12.60;;;19.70;91.90;;;;;;5073272;28;20440;-66
2022/07/25 02:13:18;;;;;;;13.97;12.57;;;19.70;92.00;;;;;;5072667;28;20431;-66
2022/07/25 02:15:45;;;;;;;14.27;12.37;;;19.70;91.80;;;;;;5072158;28;20440;-66
2022/07/25 02:18:14;;;;;;;14.77;13.27;;;19.60;91.80;;;;;;5072479;28;20444;-67
2022/07/25 02:20:46;;;;;;;16.27;14.60;;;19.40;91.90;;;;;;5072347;28;20440;-66
2022/07/25 02:23:13;;;;;;;15.80;14.17;;;19.40;92.20;;;;;;5071961;28;20977;-67
2022/07/25 02:25:42;;;;;;;14.80;13.20;;;19.40;92.30;;;;;;5072577;28;20818;-66
2022/07/25 02:28:11;;;;;;;21.23;14.97;;;19.40;92.20;;;;;;5072477;28;20436;-67
2022/07/25 02:30:46;;;;;;;17.03;15.13;;;19.40;92.30;;;;;;5072003;28;20451;-67
2022/07/25 02:33:16;;;;;;;16.00;14.27;;;19.40;92.50;;;;;;5072658;28;20440;-67
2022/07/25 02:35:46;;;;;;;18.10;14.53;;;19.40;92.50;;;;;;5072118;28;20873;-67
2022/07/25 02:38:18;;;;;;;14.83;13.33;;;19.50;92.50;;;;;;5069278;28;20455;-66
2022/07/25 02:40:46;;;;;;;17.00;13.63;;;19.50;92.50;;;;;;5072919;28;20915;-66
2022/07/25 02:43:15;;;;;;;15.33;13.50;;;19.50;92.40;;;;;;5072171;28;20889;-67
2022/07/25 02:45:43;;;;;;;16.43;14.23;;;19.50;92.40;;;;;;5072077;28;20436;-66
2022/07/25 02:48:10;;;;;;;16.97;15.07;;;19.50;92.30;;;;;;5072310;28;20438;-67
2022/07/25 02:50:40;;;;;;;16.73;13.03;;;19.40;92.10;;;;;;5071965;28;20432;-66
2022/07/25 02:53:07;;;;;;;17.27;14.70;;;19.40;92.20;;;;;;5072220;28;20443;-67
2022/07/25 02:55:34;;;;;;;15.00;13.50;;;19.30;92.40;;;;;;5071993;28;20527;-66
2022/07/25 02:58:02;;;;;;;15.77;13.47;;;19.30;92.50;;;;;;5072555;28;20480;-67
2022/07/25 03:00:30;;;;;;;14.93;13.43;;;19.40;92.50;;;;;;5071288;28;20498;-67
2022/07/25 03:02:58;;;;;;;14.30;12.43;;;19.40;92.40;;;;;;5072496;28;20483;-67
2022/07/25 03:05:26;;;;;;;14.43;12.93;;;19.30;92.50;;;;;;5071909;28;20893;-67
2022/07/25 03:07:53;;;;;;;15.20;13.60;;;19.30;92.00;;;;;;5072449;28;20447;-66
2022/07/25 03:10:22;;;;;;;20.43;12.90;;;19.30;92.00;;;;;;5069435;28;20447;-66
2022/07/25 03:12:50;;;;;;;15.63;13.13;;;19.30;92.20;;;;;;5072312;28;20798;-66
2022/07/25 03:15:17;;;;;;;15.57;13.97;;;19.20;92.40;;;;;;5071837;28;20446;-68
2022/07/25 03:17:45;;;;;;;15.77;14.03;;;19.10;92.50;;;;;;5072231;28;20440;-68
2022/07/25 03:20:13;;;;;;;15.60;14.00;;;18.90;92.80;;;;;;5071288;28;20997;-69
2022/07/25 03:22:40;;;;;;;18.83;15.47;;;18.80;92.90;;;;;;5051668;28;20859;-69
2022/07/25 03:25:08;;;;;;;14.17;12.70;;;18.70;93.40;;;;;;5063512;28;20489;-68
2022/07/25 03:27:36;;;;;;;16.20;14.50;;;18.60;93.70;;;;;;5072000;28;20436;-68
2022/07/25 03:30:03;;;;;;;15.30;13.43;;;18.50;94.00;;;;;;5071564;28;20440;-68
2022/07/25 03:32:31;;;;;;;17.87;14.90;;;18.50;94.00;;;;;;5074077;28;20440;-69
2022/07/25 03:35:00;;;;;;;15.70;14.07;;;18.60;94.10;;;;;;5075688;28;20442;-68
2022/07/25 03:37:27;;;;;;;18.27;16.17;;;18.60;94.10;;;;;;5075746;28;20909;-70
2022/07/25 03:39:55;;;;;;;16.13;14.37;;;18.70;94.10;;;;;;5075741;28;20515;-69
2022/07/25 03:42:23;;;;;;;20.33;14.87;;;18.80;94.20;;;;;;5075410;28;20513;-71
2022/07/25 03:44:51;;;;;;;16.20;14.37;;;18.80;94.10;;;;;;5055569;28;21018;-69
2022/07/25 03:47:18;;;;;;;18.27;14.30;;;18.90;94.00;;;;;;5063584;28;20439;-68
2022/07/25 03:49:45;;;;;;;16.10;14.30;;;18.90;93.90;;;;;;5075747;28;20508;-68
2022/07/25 03:52:14;;;;;;;15.07;13.03;;;19.00;93.90;;;;;;5074834;28;20452;-68
2022/07/25 03:54:41;;;;;;;17.20;14.30;;;19.00;93.90;;;;;;5075135;28;20436;-68
2022/07/25 03:57:10;;;;;;;15.20;13.40;;;19.00;93.70;;;;;;5074843;28;20448;-68
2022/07/25 03:59:38;;;;;;;16.50;13.83;;;19.00;93.70;;;;;;5075055;28;20489;-69
2022/07/25 04:02:05;;;;;;;15.47;13.50;;;19.10;93.70;;;;;;5075043;28;20440;-69
2022/07/25 04:04:35;;;;;;;16.90;14.90;;;19.10;93.60;;;;;;5075498;28;20483;-68
2022/07/25 04:07:02;;;;;;;15.07;13.47;;;19.10;93.60;;;;;;5075177;28;20443;-68
2022/07/25 04:09:31;;;;;;;15.50;13.90;;;19.10;93.60;;;;;;5075238;28;20440;-68
2022/07/25 04:11:58;;;;;;;15.03;13.47;;;19.00;93.70;;;;;;5074692;28;20436;-69
2022/07/25 04:14:25;;;;;;;16.40;14.70;;;19.00;93.80;;;;;;5075558;28;20440;-69
2022/07/25 04:16:53;;;;;;;16.70;13.03;;;19.00;93.70;;;;;;5075242;28;20477;-68
2022/07/25 04:19:20;;;;;;;16.90;13.80;;;19.10;93.80;;;;;;5075260;28;20435;-68
2022/07/25 04:21:52;;;;;;;17.03;13.63;;;19.00;93.90;;;;;;5074839;28;20440;-68
2022/07/25 04:24:19;;;;;;;15.63;13.57;;;19.10;93.90;;;;;;5075120;28;20492;-69
2022/07/25 04:26:48;;;;;;;17.87;15.97;;;19.00;93.90;;;;;;5074506;28;20816;-68
2022/07/25 04:29:15;;;;;;;15.63;13.97;;;18.90;93.90;;;;;;5075231;28;20841;-68
2022/07/25 04:31:42;;;;;;;15.03;13.43;;;19.00;94.00;;;;;;5074968;28;20935;-68
2022/07/25 04:34:10;;;;;;;17.57;14.50;;;18.90;93.90;;;;;;5075127;28;20519;-69
2022/07/25 04:36:37;;;;;;;15.17;13.30;;;18.90;94.00;;;;;;5074570;28;20444;-69
2022/07/25 04:39:04;;;;;;;16.40;14.63;;;18.90;94.20;;;;;;5075071;28;20431;-68
2022/07/25 04:41:32;;;;;;;14.70;13.20;;;18.90;94.30;;;;;;5074526;28;20440;-68
2022/07/25 04:44:00;;;;;;;18.27;15.70;;;19.00;94.30;;;;;;5074445;28;21105;-71
2022/07/25 04:46:28;;;;;;;16.27;14.60;;;19.00;94.40;;;;;;5074475;28;20440;-68
2022/07/25 04:48:55;;;;;;;15.53;13.93;;;19.00;94.50;;;;;;5074945;28;20436;-69
2022/07/25 04:51:22;;;;;;;15.77;13.80;;;19.10;94.60;;;;;;5074674;28;20462;-69
2022/07/25 04:53:49;;;;;;;18.13;13.93;;;19.20;94.50;;;;;;5074662;28;20432;-68
2022/07/25 04:56:16;;;;;;;15.20;13.40;;;19.30;94.50;;;;;;5074234;28;20444;-69
2022/07/25 04:58:44;;;;;;;13.57;12.17;;;19.40;94.70;;;;;;5074759;28;20439;-68
2022/07/25 05:01:13;;;;;;;15.90;14.20;;;19.50;94.90;;;;;;5073736;28;20834;-68
2022/07/25 05:03:40;;;;;;;16.97;15.17;;;19.60;94.90;;;;;;5074616;28;20471;-69
2022/07/25 05:06:08;;;;;;;15.57;13.97;;;19.70;94.50;;;;;;5074158;28;20444;-68
2022/07/25 05:08:35;;;;;;;14.30;12.90;;;19.80;94.60;;;;;;5073703;28;20436;-69
2022/07/25 05:11:02;;;;;;;15.70;13.80;;;19.80;94.40;;;;;;5074468;28;20970;-68
2022/07/25 05:13:30;;;;;;;15.70;14.10;;;19.90;94.20;;;;;;5074022;28;20804;-68
2022/07/25 05:15:57;;;;;;;15.20;13.60;;;20.00;94.70;;;;;;5069128;28;20448;-69
2022/07/25 05:18:26;;;;;;;16.33;13.57;;;20.10;94.20;;;;;;5071565;28;20444;-69
2022/07/25 05:20:58;;;;;;;19.10;14.13;;;20.20;94.50;;;;;;5072156;28;20489;-69
2022/07/25 05:23:25;;;;;;;17.57;14.63;;;20.30;94.40;;;;;;5071624;28;20462;-68
2022/07/25 05:25:53;;;;;;;18.47;15.10;;;20.40;94.60;;;;;;5071670;28;20439;-69
2022/07/25 05:28:20;;;;;;;17.00;14.53;;;20.50;94.70;;;;;;5072260;28;20436;-68
2022/07/25 05:30:47;;;;;;;17.70;15.07;;;20.60;93.80;;;;;;5072119;28;20459;-69
2022/07/25 05:33:15;;;;;;;17.67;14.63;;;20.70;93.50;;;;;;5072041;28;20443;-68
2022/07/25 05:35:43;;;;;;;16.10;14.40;;;20.70;93.40;;;;;;5071662;28;20526;-71
2022/07/25 05:38:11;;;;;;;15.60;13.17;;;20.70;93.50;;;;;;5071789;28;20502;-68
2022/07/25 05:40:38;;;;;;;21.83;13.23;;;20.80;93.20;;;;;;5071250;28;20948;-69
2022/07/25 05:43:05;;;;;;;14.23;12.73;;;20.90;93.10;;;;;;5071555;28;20479;-69
2022/07/25 05:45:32;;;;;;;14.27;12.77;;;21.10;93.00;;;;;;5070943;28;20720;-69
2022/07/25 05:48:00;;;;;;;14.63;13.13;;;21.20;93.10;;;;;;5071439;28;20465;-69
2022/07/25 05:50:27;;;;;;;16.47;13.77;;;21.30;93.20;;;;;;5071257;28;20444;-69
2022/07/25 05:52:56;;;;;;;14.10;12.70;;;21.50;93.50;;;;;;5072136;28;20433;-71
2022/07/25 05:55:24;;;;;;;16.73;14.93;;;21.60;93.60;;;;;;5070751;28;20926;-69
2022/07/25 05:57:52;;;;;;;16.20;14.50;;;21.80;93.30;;;;;;5071016;28;20447;-69
2022/07/25 06:00:19;;;;;;;15.33;13.73;;;21.90;93.10;;;;;;5071462;28;20450;-70
2022/07/25 06:02:46;;;;;;;14.43;13.03;;;22.00;92.80;;;;;;5071143;28;20443;-68
2022/07/25 06:05:14;;;;;;;13.73;12.33;;;22.10;92.30;;;;;;5070627;28;20548;-68
2022/07/25 06:07:43;;;;;;;14.27;12.73;;;22.20;92.70;;;;;;5071088;28;20461;-69
2022/07/25 06:10:12;;;;;;;14.63;13.23;;;22.30;92.30;;;;;;5071043;28;20432;-68
2022/07/25 06:12:39;;;;;;;13.63;12.43;;;22.40;91.00;;;;;;5071447;28;20880;-72
2022/07/25 06:15:07;;;;;;;14.03;12.63;;;22.50;90.70;;;;;;5070465;28;20444;-71
2022/07/25 06:17:34;;;;;;;14.53;11.13;;;22.70;90.80;;;;;;5067296;28;20439;-69
2022/07/25 06:20:01;;;;;;;13.43;12.03;;;22.80;90.90;;;;;;5071045;28;20442;-69
2022/07/25 06:22:30;;;;;;;13.60;12.30;;;22.90;90.90;;;;;;5071035;28;20474;-69
2022/07/25 06:24:57;;;;;;;17.30;13.07;;;23.00;90.50;;;;;;5070422;28;20476;-68
2022/07/25 06:27:26;;;;;;;12.37;11.10;;;23.10;90.40;;;;;;5071029;28;20462;-69
2022/07/25 06:29:54;;;;;;;14.53;11.00;;;23.20;90.10;;;;;;5070884;28;20527;-69
2022/07/25 06:32:24;;;;;;;18.33;12.00;;;23.30;90.00;;;;;;5070656;28;20466;-74
2022/07/25 06:34:51;;;;;;;14.10;12.80;;;23.40;89.60;;;;;;5069064;28;20432;-75
2022/07/25 06:37:19;;;;;;;15.23;11.47;;;23.50;89.60;;;;;;5069628;28;20440;-68
2022/07/25 06:39:46;;;;;;;13.20;11.90;;;23.60;89.30;;;;;;5070539;28;20497;-68
2022/07/25 06:42:13;;;;;;;14.03;12.73;;;23.70;89.40;;;;;;5070382;28;20934;-69
2022/07/25 06:44:41;;;;;;;12.23;11.03;;;23.80;89.00;;;;;;5070335;28;20471;-68
2022/07/25 06:47:11;;;;;;;13.13;10.73;;;23.80;88.50;;;;;;5070291;28;20444;-69
2022/07/25 06:49:38;;;;;;;12.73;11.40;;;24.00;89.10;;;;;;5070562;28;20487;-68
2022/07/25 06:52:06;;;;;;;12.63;11.43;;;24.10;89.10;;;;;;5072066;28;20923;-68
2022/07/25 06:54:33;;;;;;;15.80;11.60;;;24.20;90.20;;;;;;5073114;28;20490;-69
2022/07/25 06:57:00;;;;;;;15.30;11.97;;;24.30;89.20;;;;;;5072573;28;20443;-69
2022/07/25 06:59:27;;;;;;;12.90;11.60;;;24.50;88.40;;;;;;5073085;28;20479;-69
2022/07/25 07:01:55;;;;;;;15.60;12.63;;;24.60;86.60;;;;;;5073179;28;20440;-69
2022/07/25 07:04:22;;;;;;;13.73;11.97;;;24.70;85.90;;;;;;5072842;28;20894;-69
2022/07/25 07:06:49;;;;;;;12.37;11.13;;;24.80;86.50;;;;;;5078018;28;20478;-69
2022/07/25 07:09:16;;;;;;;13.73;12.33;;;24.90;86.70;;;;;;5079424;28;20564;-69
2022/07/25 07:11:43;;;;;;;12.57;11.37;;;25.10;86.00;;;;;;5079490;28;20446;-68
2022/07/25 07:14:10;;;;;;;12.77;11.47;;;25.20;85.70;;;;;;5079478;28;20447;-67
2022/07/25 07:16:38;;;;;;;15.20;13.57;;;25.30;84.50;;;;;;5079526;28;20471;-68
2022/07/25 07:19:09;;;;;;;13.10;11.80;;;25.40;84.30;;;;;;5079526;28;20476;-67
2022/07/25 07:21:36;;;;;;;11.90;10.70;;;25.50;83.90;;;;;;5079525;28;20440;-67
2022/07/25 07:24:03;;;;;;;14.57;13.07;;;25.70;84.90;;;;;;5079021;28;20554;-65
2022/07/25 07:26:30;;;;;;;12.37;11.10;;;25.80;85.00;;;;;;5079315;28;20862;-65
2022/07/25 07:28:57;;;;;;;12.77;11.57;;;25.90;82.50;;;;;;5079179;28;20527;-65
2022/07/25 07:31:24;;;;;;;12.93;11.50;;;26.10;83.20;;;;;;5079161;28;20783;-65
2022/07/25 07:33:51;;;;;;;13.17;11.90;;;26.20;81.00;;;;;;5079163;28;20486;-66
2022/07/25 07:36:19;;;;;;;13.53;11.03;;;26.40;81.50;;;;;;5079159;28;20472;-65
2022/07/25 07:38:47;;;;;;;14.20;12.07;;;26.50;81.50;;;;;;5079168;28;20859;-65
2022/07/25 07:41:14;;;;;;;13.60;10.57;;;26.60;79.90;;;;;;5079308;28;20451;-65
2022/07/25 07:43:41;;;;;;;12.50;11.40;;;26.70;78.90;;;;;;5079281;28;20526;-66
2022/07/25 07:46:08;;;;;;;12.27;11.07;;;26.80;79.20;;;;;;5079110;28;20518;-65
2022/07/25 07:48:35;;;;;;;12.27;11.07;;;27.00;80.00;;;;;;5079024;28;20467;-66
2022/07/25 07:51:03;;;;;;;12.30;11.17;;;27.20;76.00;;;;;;5079053;28;20538;-66
2022/07/25 07:56:17;;;;;;;14.10;12.67;;;27.40;77.10;;;;;;5078780;28;20545;-66
2022/07/25 07:58:45;;;;;;;13.80;12.60;;;27.40;75.40;;;;;;5079139;28;20790;-66
2022/07/25 08:01:12;;;;;;;12.40;11.30;;;27.50;75.10;;;;;;5078555;28;20467;-66
2022/07/25 08:03:39;;;;;;;12.33;11.23;;;27.60;74.90;;;;;;5079042;28;20474;-66
2022/07/25 08:06:07;;;;;;;12.37;11.07;;;27.70;74.40;;;;;;5079007;28;20475;-66
2022/07/25 08:08:35;;;;;;;12.70;11.57;;;27.90;74.10;;;;;;5078527;28;20485;-66
2022/07/25 08:11:02;;;;;;;13.57;12.07;;;28.00;73.80;;;;;;5078959;28;20784;-65
2022/07/25 08:13:30;;;;;;;12.97;11.60;;;28.20;73.70;;;;;;5079021;28;20480;-65
2022/07/25 08:15:59;;;;;;;11.17;10.17;;;28.40;73.90;;;;;;5078809;28;20520;-66
2022/07/25 08:18:28;;;;;;;14.57;12.00;;;28.50;73.10;;;;;;5075519;28;20439;-65
2022/07/25 08:20:56;;;;;;;12.43;11.23;;;28.70;74.00;;;;;;5075155;28;20462;-66
2022/07/25 08:23:24;;;;;;;13.67;10.77;;;28.90;73.10;;;;;;5075582;28;20545;-66
2022/07/25 08:25:52;;;;;;;11.63;10.40;;;29.00;71.40;;;;;;5075467;28;21043;-65
2022/07/25 08:28:19;;;;;;;12.53;11.23;;;29.20;71.90;;;;;;5075527;28;20519;-65
2022/07/25 08:30:47;;;;;;;14.17;11.07;;;29.40;69.40;;;;;;5075550;28;20931;-65
2022/07/25 08:33:15;;;;;;;11.63;10.57;;;29.50;67.40;;;;;;5075487;28;20473;-65
2022/07/25 08:35:46;;;;;;;11.70;10.60;;;29.60;68.50;;;;;;5075228;28;20438;-66
2022/07/25 08:38:13;;;;;;;11.53;10.63;;;29.80;67.20;;;;;;5075375;28;20509;-65
2022/07/25 08:40:40;;;;;;;12.77;11.50;;;30.00;66.50;;;;;;5075406;28;20553;-66
2022/07/25 08:43:12;;;;;;;11.90;9.87;;;30.10;65.80;;;;;;5074952;28;20838;-66
2022/07/25 08:45:44;;;;;;;14.00;12.60;;;30.20;62.70;;;;;;5075267;28;20550;-65
2022/07/25 08:48:11;;;;;;;12.00;11.00;;;30.40;61.40;;;;;;5075279;28;20790;-66
2022/07/25 08:50:39;;;;;;;11.03;10.00;;;30.50;60.10;;;;;;5075010;28;20444;-66
2022/07/25 08:53:06;;;;;;;11.80;10.40;;;30.60;59.90;;;;;;5075079;28;20523;-66
2022/07/25 08:55:33;;;;;;;11.30;10.20;;;30.80;59.40;;;;;;5074890;28;20518;-65
2022/07/25 08:58:00;;;;;;;14.87;9.53;;;30.90;57.10;;;;;;5075022;28;20467;-66
2022/07/25 09:00:29;;;;;;;7.23;6.53;;;31.10;58.20;;;;;;5074660;28;20454;-66
2022/07/25 09:02:59;;;;;;;8.40;7.60;;;31.30;55.80;;;;;;5075082;28;20459;-66
2022/07/25 09:05:28;;;;;;;7.20;6.50;;;31.40;50.30;;;;;;5074972;28;20529;-66
2022/07/25 09:07:55;;;;;;;8.37;7.40;;;31.60;46.10;;;;;;5074959;28;20444;-66
2022/07/25 09:10:24;;;;;;;6.67;6.03;;;31.70;47.10;;;;;;5074397;28;20523;-66
2022/07/25 09:12:53;;;;;;;7.90;5.37;;;31.80;43.20;;;;;;5074682;28;20475;-65
2022/07/25 09:15:29;;;;;;;7.23;6.00;;;31.90;42.10;;;;;;5074934;28;20794;-65
2022/07/25 09:17:57;;;;;;;8.83;5.90;;;32.00;42.10;;;;;;5074496;28;20466;-67
2022/07/25 09:20:25;;;;;;;6.50;5.90;;;32.20;42.10;;;;;;5070005;28;20479;-68
2022/07/25 09:22:52;;;;;;;7.20;5.90;;;32.20;41.60;;;;;;5072821;28;20558;-68
2022/07/25 09:25:24;;;;;;;6.83;5.30;;;32.40;40.70;;;;;;5073590;28;20488;-67
2022/07/25 09:27:54;;;;;;;6.60;5.90;;;32.40;38.70;;;;;;5071667;28;20467;-67
2022/07/25 09:30:22;;;;;;;7.13;4.63;;;32.60;38.40;;;;;;5070536;28;20482;-65
2022/07/25 09:33:00;;;;;;;5.00;4.50;;;32.70;37.50;;;;;;5073519;28;20472;-65
2022/07/25 09:35:31;;;;;;;6.47;5.33;;;32.80;36.60;;;;;;5072950;28;20440;-65
2022/07/25 09:38:10;;;;;;;6.63;6.03;;;32.90;36.20;;;;;;5072931;28;20451;-66
2022/07/25 09:40:37;;;;;;;6.63;5.70;;;33.00;37.40;;;;;;5073098;28;20536;-65
2022/07/25 09:43:05;;;;;;;5.37;4.87;;;33.10;37.70;;;;;;5072953;28;20476;-65
2022/07/25 09:45:32;;;;;;;5.93;5.43;;;33.20;36.20;;;;;;5072597;28;21017;-65
2022/07/25 09:48:03;;;;;;;5.47;4.67;;;33.30;36.20;;;;;;5072724;28;20501;-66
2022/07/25 09:50:32;;;;;;;6.30;4.80;;;33.40;35.80;;;;;;5072934;28;21350;-66
2022/07/25 09:53:02;;;;;;;6.60;5.67;;;33.60;36.10;;;;;;5072753;28;20919;-65
2022/07/25 09:55:30;;;;;;;5.93;5.43;;;33.70;34.70;;;;;;5072235;28;20450;-65
2022/07/25 09:57:57;;;;;;;5.97;5.23;;;33.80;35.70;;;;;;5072573;28;20505;-65
2022/07/25 10:00:26;;;;;;;5.60;4.90;;;33.90;35.80;;;;;;5072608;28;20471;-65
2022/07/25 10:03:20;;;;;;;7.50;6.03;;;34.00;36.40;;;;;;5070817;28;20843;-66
2022/07/25 10:06:05;;;;;;;9.30;6.10;;;34.10;35.10;;;;;;5072451;28;20570;-65
2022/07/25 10:08:36;;;;;;;7.03;6.10;;;34.10;33.90;;;;;;5071462;28;20853;-65
2022/07/25 10:11:05;;;;;;;7.17;6.43;;;34.10;34.00;;;;;;5072543;28;20471;-65
2022/07/25 10:13:35;;;;;;;6.73;6.10;;;34.10;34.00;;;;;;5071030;28;20432;-66
2022/07/25 10:16:02;;;;;;;6.77;6.07;;;34.20;34.10;;;;;;5069074;28;20505;-65
2022/07/25 10:18:33;;;;;;;6.87;6.27;;;34.40;34.80;;;;;;5068349;28;20523;-65
2022/07/25 10:21:10;;;;;;;6.70;6.00;;;34.50;34.70;;;;;;5072260;28;20436;-65
2022/07/25 10:23:38;;;;;;;6.63;6.03;;;34.60;34.70;;;;;;5071377;28;20495;-65
2022/07/25 10:26:09;;;;;;;6.43;5.57;;;34.70;35.60;;;;;;5071906;28;21069;-65
2022/07/25 10:28:42;;;;;;;6.03;5.07;;;34.80;35.30;;;;;;5071673;28;20447;-65
2022/07/25 10:31:17;;;;;;;7.07;5.80;;;34.90;34.30;;;;;;5071562;28;20444;-65
2022/07/25 10:33:48;;;;;;;7.50;5.53;;;35.00;33.70;;;;;;5071758;28;20443;-65
2022/07/25 10:36:15;;;;;;;7.90;5.60;;;35.10;33.80;;;;;;5072150;28;20518;-65
2022/07/25 10:38:44;;;;;;;6.60;6.00;;;35.20;33.50;;;;;;5071795;28;20566;-65
2022/07/25 10:41:12;;;;;;;5.30;4.80;;;35.10;31.90;;;;;;5071696;28;20494;-65
2022/07/25 10:43:44;;;;;;;6.50;5.93;;;35.10;31.10;;;;;;5071450;28;20519;-65
2022/07/25 10:46:13;;;;;;;7.23;5.50;;;35.10;31.70;;;;;;5071877;28;20566;-65
2022/07/25 10:48:41;;;;;;;6.50;5.80;;;35.10;31.10;;;;;;5071783;28;20469;-65
2022/07/25 10:51:10;;;;;;;9.47;5.67;;;35.10;31.50;;;;;;5071942;28;20472;-65
2022/07/25 10:53:44;;;;;;;6.43;5.20;;;35.20;31.40;;;;;;5071952;28;20901;-65
2022/07/25 10:56:18;;;;;;;5.93;5.33;;;35.20;30.00;;;;;;5072025;28;20440;-66
2022/07/25 10:58:48;;;;;;;6.20;5.40;;;35.10;29.90;;;;;;5071755;28;20846;-65
2022/07/25 11:01:20;;;;;;;5.90;5.30;;;35.20;31.00;;;;;;5071804;28;20535;-65
2022/07/25 11:03:48;;;;;;;6.70;5.30;;;35.20;30.30;;;;;;5071986;28;20475;-65
2022/07/25 11:06:17;;;;;;;8.80;5.87;;;35.20;29.40;;;;;;5070542;28;20565;-65
2022/07/25 11:08:44;;;;;;;9.43;5.97;;;35.20;29.80;;;;;;5071568;28;20514;-65
2022/07/25 11:11:12;;;;;;;5.70;5.10;;;35.20;29.20;;;;;;5070927;28;20436;-65
2022/07/25 11:13:41;;;;;;;8.80;5.23;;;35.20;28.70;;;;;;5071002;28;20448;-65
2022/07/25 11:16:09;;;;;;;7.27;5.53;;;35.30;29.20;;;;;;5070525;28;20468;-66
2022/07/25 11:18:39;;;;;;;7.03;5.20;;;35.40;29.90;;;;;;5067506;28;20436;-65
2022/07/25 11:21:08;;;;;;;5.33;4.63;;;35.50;29.90;;;;;;5069790;28;20469;-65
2022/07/25 11:23:37;;;;;;;7.60;6.30;;;35.60;30.00;;;;;;5068307;28;20476;-65
2022/07/25 11:26:09;;;;;;;6.10;5.50;;;35.60;28.60;;;;;;5069460;28;20563;-65
2022/07/25 11:28:48;;;;;;;5.90;5.30;;;35.70;29.40;;;;;;5070882;28;20440;-65
2022/07/25 11:31:17;;;;;;;5.60;5.03;;;35.70;29.60;;;;;;5070042;28;20489;-65
2022/07/25 11:33:47;;;;;;;5.53;5.03;;;35.80;30.40;;;;;;5070892;28;20493;-66
2022/07/25 11:36:15;;;;;;;10.03;5.97;;;35.80;29.40;;;;;;5071144;28;20513;-65
2022/07/25 11:38:48;;;;;;;6.80;5.73;;;35.80;28.30;;;;;;5070845;28;20829;-65
2022/07/25 11:41:15;;;;;;;7.17;6.47;;;35.80;29.20;;;;;;5070543;28;20444;-67
2022/07/25 11:43:48;;;;;;;6.03;5.43;;;35.80;28.90;;;;;;5070958;28;20428;-65
2022/07/25 11:46:16;;;;;;;6.37;5.50;;;35.80;29.30;;;;;;5070142;28;20488;-65
2022/07/25 11:48:44;;;;;;;7.17;5.30;;;35.80;28.40;;;;;;5070782;28;20546;-66
2022/07/25 11:51:15;;;;;;;6.63;5.87;;;35.80;28.80;;;;;;5069987;28;20436;-65
2022/07/25 11:53:46;;;;;;;7.83;6.10;;;35.80;28.90;;;;;;5073084;28;20467;-65
2022/07/25 11:56:15;;;;;;;6.40;5.80;;;35.70;28.40;;;;;;5074581;28;20452;-65
2022/07/25 11:58:43;;;;;;;5.57;5.07;;;35.70;28.80;;;;;;5074662;28;20501;-65
2022/07/25 12:01:15;;;;;;;6.50;5.97;;;35.70;28.60;;;;;;5074970;28;20862;-66
2022/07/25 12:03:42;;;;;;;6.87;6.17;;;35.70;28.40;;;;;;5075297;28;20795;-66
2022/07/25 12:06:10;;;;;;;5.50;4.97;;;35.70;28.80;;;;;;5075072;28;20545;-65
2022/07/25 12:08:39;;;;;;;6.23;4.90;;;35.70;28.50;;;;;;5074604;28;20530;-65
2022/07/25 12:11:23;;;;;;;5.83;5.23;;;35.70;28.40;;;;;;5074846;28;20439;-66
2022/07/25 12:14:02;;;;;;;6.87;5.93;;;35.70;28.60;;;;;;5074956;28;20444;-65
2022/07/25 12:16:29;;;;;;;5.80;5.30;;;35.70;29.00;;;;;;5072875;28;20493;-65
2022/07/25 12:18:56;;;;;;;6.17;5.63;;;35.70;28.80;;;;;;5075239;28;20494;-65
2022/07/25 12:21:23;;;;;;;6.10;5.50;;;35.70;28.60;;;;;;5075747;28;20471;-66
2022/07/25 12:23:50;;;;;;;6.10;5.50;;;35.60;28.10;;;;;;5075356;28;20889;-65
2022/07/25 12:26:17;;;;;;;5.50;5.00;;;35.60;28.40;;;;;;5075361;28;20570;-65
2022/07/25 12:28:45;;;;;;;10.63;5.80;;;35.60;27.80;;;;;;5075728;28;20515;-65
2022/07/25 12:31:12;;;;;;;6.20;5.60;;;35.60;27.90;;;;;;5075564;28;20443;-65
2022/07/25 12:33:39;;;;;;;6.20;5.60;;;35.60;28.00;;;;;;5075344;28;20476;-65
2022/07/25 12:36:07;;;;;;;6.67;5.73;;;35.60;27.70;;;;;;5075174;28;20958;-65
2022/07/25 12:38:34;;;;;;;5.67;5.10;;;35.50;27.90;;;;;;5075193;28;20543;-66
2022/07/25 12:41:01;;;;;;;5.80;5.30;;;35.50;28.00;;;;;;5075345;28;20523;-66
2022/07/25 12:43:28;;;;;;;5.73;5.20;;;35.60;27.90;;;;;;5075218;28;20525;-66
2022/07/25 12:45:57;;;;;;;6.50;5.67;;;35.70;28.90;;;;;;5074524;28;20514;-66